sensor_id;sensor_type;location;lat;lon;timestamp;P1;durP1;ratioP1;P2;durP2;ratioP2
73315;SDS011;61545;53.726;-0.444;2024-03-29T00:00:14;2.4;;;1.5;;
73315;SDS011;61545;53.726;-0.444;2024-03-29T00:05:13;1.5;;;1;;
73315;SDS011;61545;53.726;-0.444;2024-03-29T00:10:13;1.2;;;0.5;;
73315;SDS011;61545;53.726;-0.444;2024-03-29T00:15:13;1.2;;;0.5;;
73315;SDS011;61545;53.726;-0.444;2024-03-29T00:20:13;1.5;;;0.6;;
73315;SDS011;61545;53.726;-0.444;2024-03-29T00:25:13;1.4;;;0.6;;
73315;SDS011;61545;53.726;-0.444;2024-03-29T00:30:13;1.5;;;0.6;;
73315;SDS011;61545;53.726;-0.444;2024-03-29T00:35:13;0.8;;;0.6;;
73315;SDS011;61545;53.726;-0.444;2024-03-29T00:40:13;1.8;;;0.8;;
73315;SDS011;61545;53.726;-0.444;2024-03-29T00:45:13;1.8;;;0.8;;
73315;SDS011;61545;53.726;-0.444;2024-03-29T00:50:13;0.9;;;0.6;;
73315;SDS011;61545;53.726;-0.444;2024-03-29T00:55:13;1.1;;;0.7;;
73315;SDS011;61545;53.726;-0.444;2024-03-29T01:00:13;3.7;;;0.8;;
73315;SDS011;61545;53.726;-0.444;2024-03-29T01:05:13;1.6;;;0.9;;
73315;SDS011;61545;53.726;-0.444;2024-03-29T01:10:13;1.7;;;0.8;;
73315;SDS011;61545;53.726;-0.444;2024-03-29T01:15:13;1.7;;;0.8;;
73315;SDS011;61545;53.726;-0.444;2024-03-29T01:20:13;1.0;;;0.6;;
73315;SDS011;61545;53.726;-0.444;2024-03-29T01:25:13;0.8;;;0.6;;
73315;SDS011;61545;53.726;-0.444;2024-03-29T01:30:13;1.3;;;0.7;;
73315;SDS011;61545;53.726;-0.444;2024-03-29T01:35:13;0.8;;;0.6;;
73315;SDS011;61545;53.726;-0.444;2024-03-29T01:40:13;1.7;;;0.5;;
73315;SDS011;61545;53.726;-0.444;2024-03-29T01:45:13;1.7;;;0.5;;
73315;SDS011;61545;53.726;-0.444;2024-03-29T01:50:13;1.8;;;0.9;;
73315;SDS011;61545;53.726;-0.444;2024-03-29T01:55:13;1.7;;;0.7;;
73315;SDS011;61545;53.726;-0.444;2024-03-29T02:00:13;1.9;;;0.7;;
73315;SDS011;61545;53.726;-0.444;2024-03-29T02:05:13;2.2;;;0.7;;
73315;SDS011;61545;53.726;-0.444;2024-03-29T02:10:13;2.5;;;0.6;;
73315;SDS011;61545;53.726;-0.444;2024-03-29T02:15:14;2.5;;;0.6;;
73315;SDS011;61545;53.726;-0.444;2024-03-29T02:20:13;2.1;;;0.6;;
73315;SDS011;61545;53.726;-0.444;2024-03-29T02:25:13;2.3;;;0.7;;
73315;SDS011;61545;53.726;-0.444;2024-03-29T02:30:13;3.9;;;0.8;;
73315;SDS011;61545;53.726;-0.444;2024-03-29T02:35:13;3.2;;;0.7;;
73315;SDS011;61545;53.726;-0.444;2024-03-29T02:40:13;2.8;;;0.8;;
73315;SDS011;61545;53.726;-0.444;2024-03-29T02:45:13;2.8;;;0.8;;
73315;SDS011;61545;53.726;-0.444;2024-03-29T02:50:15;1.9;;;0.6;;
73315;SDS011;61545;53.726;-0.444;2024-03-29T02:55:13;2.8;;;1;;
73315;SDS011;61545;53.726;-0.444;2024-03-29T03:00:13;2.2;;;0.7;;
73315;SDS011;61545;53.726;-0.444;2024-03-29T03:05:13;4.4;;;1.2;;
73315;SDS011;61545;53.726;-0.444;2024-03-29T03:10:13;17.1;;;3.2;;
73315;SDS011;61545;53.726;-0.444;2024-03-29T03:15:13;17.1;;;3.2;;
73315;SDS011;61545;53.726;-0.444;2024-03-29T03:20:13;15.0;;;3.5;;
73315;SDS011;61545;53.726;-0.444;2024-03-29T03:25:13;12.1;;;3.1;;
73315;SDS011;61545;53.726;-0.444;2024-03-29T03:30:13;13.1;;;4;;
73315;SDS011;61545;53.726;-0.444;2024-03-29T03:35:13;11.9;;;3.4;;
73315;SDS011;61545;53.726;-0.444;2024-03-29T03:40:13;10.5;;;3.4;;
73315;SDS011;61545;53.726;-0.444;2024-03-29T03:45:13;10.5;;;3.4;;
73315;SDS011;61545;53.726;-0.444;2024-03-29T03:50:13;9.9;;;3.4;;
73315;SDS011;61545;53.726;-0.444;2024-03-29T03:55:13;9.2;;;2.5;;
73315;SDS011;61545;53.726;-0.444;2024-03-29T04:00:13;10.4;;;2.2;;
73315;SDS011;61545;53.726;-0.444;2024-03-29T04:05:13;9.8;;;1.9;;
73315;SDS011;61545;53.726;-0.444;2024-03-29T04:10:13;8.4;;;1.8;;
73315;SDS011;61545;53.726;-0.444;2024-03-29T04:15:13;8.4;;;1.8;;
73315;SDS011;61545;53.726;-0.444;2024-03-29T04:20:13;5.4;;;1.3;;
73315;SDS011;61545;53.726;-0.444;2024-03-29T04:25:13;7.4;;;1.4;;
73315;SDS011;61545;53.726;-0.444;2024-03-29T04:30:13;7.0;;;2.1;;
73315;SDS011;61545;53.726;-0.444;2024-03-29T04:35:13;8.3;;;2.3;;
73315;SDS011;61545;53.726;-0.444;2024-03-29T04:40:13;9.3;;;2.6;;
73315;SDS011;61545;53.726;-0.444;2024-03-29T04:45:13;9.3;;;2.6;;
73315;SDS011;61545;53.726;-0.444;2024-03-29T04:50:13;13.4;;;4.2;;
73315;SDS011;61545;53.726;-0.444;2024-03-29T04:55:13;13.1;;;4.5;;
73315;SDS011;61545;53.726;-0.444;2024-03-29T05:00:13;9.9;;;3.3;;
73315;SDS011;61545;53.726;-0.444;2024-03-29T05:05:13;10.2;;;2.9;;
73315;SDS011;61545;53.726;-0.444;2024-03-29T05:10:13;4.9;;;1.6;;
73315;SDS011;61545;53.726;-0.444;2024-03-29T05:15:13;4.9;;;1.6;;
73315;SDS011;61545;53.726;-0.444;2024-03-29T05:20:13;3.6;;;1.2;;
73315;SDS011;61545;53.726;-0.444;2024-03-29T05:25:13;2.1;;;0.8;;
73315;SDS011;61545;53.726;-0.444;2024-03-29T05:30:13;4.8;;;1;;
73315;SDS011;61545;53.726;-0.444;2024-03-29T05:35:13;4.5;;;1;;
73315;SDS011;61545;53.726;-0.444;2024-03-29T05:40:13;2.4;;;0.8;;
73315;SDS011;61545;53.726;-0.444;2024-03-29T05:45:22;2.4;;;0.8;;
73315;SDS011;61545;53.726;-0.444;2024-03-29T05:50:13;4.6;;;1.2;;
73315;SDS011;61545;53.726;-0.444;2024-03-29T05:55:13;3.7;;;1.2;;
73315;SDS011;61545;53.726;-0.444;2024-03-29T06:00:13;4.5;;;1.1;;
73315;SDS011;61545;53.726;-0.444;2024-03-29T06:05:13;5.1;;;1.2;;
73315;SDS011;61545;53.726;-0.444;2024-03-29T06:10:13;3.8;;;1.3;;
73315;SDS011;61545;53.726;-0.444;2024-03-29T06:15:13;3.8;;;1.3;;
73315;SDS011;61545;53.726;-0.444;2024-03-29T06:20:13;6.2;;;1.6;;
73315;SDS011;61545;53.726;-0.444;2024-03-29T06:25:13;4.2;;;1.2;;
73315;SDS011;61545;53.726;-0.444;2024-03-29T06:30:13;5.5;;;1.5;;
73315;SDS011;61545;53.726;-0.444;2024-03-29T06:35:13;4.4;;;1;;
73315;SDS011;61545;53.726;-0.444;2024-03-29T06:40:13;6.9;;;1.8;;
73315;SDS011;61545;53.726;-0.444;2024-03-29T06:45:13;6.9;;;1.8;;
73315;SDS011;61545;53.726;-0.444;2024-03-29T06:50:13;2.9;;;1.3;;
73315;SDS011;61545;53.726;-0.444;2024-03-29T06:55:13;5.0;;;1.4;;
73315;SDS011;61545;53.726;-0.444;2024-03-29T07:00:13;4.3;;;1.4;;
73315;SDS011;61545;53.726;-0.444;2024-03-29T07:05:13;4.9;;;1.4;;
73315;SDS011;61545;53.726;-0.444;2024-03-29T07:10:13;4.9;;;1.4;;
73315;SDS011;61545;53.726;-0.444;2024-03-29T07:15:13;4.9;;;1.4;;
73315;SDS011;61545;53.726;-0.444;2024-03-29T07:20:13;4.0;;;1.2;;
73315;SDS011;61545;53.726;-0.444;2024-03-29T07:25:13;3.1;;;1.2;;
73315;SDS011;61545;53.726;-0.444;2024-03-29T07:30:15;7.8;;;1.3;;
73315;SDS011;61545;53.726;-0.444;2024-03-29T07:35:13;4.1;;;1.4;;
73315;SDS011;61545;53.726;-0.444;2024-03-29T07:40:13;5.3;;;1.3;;
73315;SDS011;61545;53.726;-0.444;2024-03-29T07:45:13;5.3;;;1.3;;
73315;SDS011;61545;53.726;-0.444;2024-03-29T07:50:13;7.0;;;1.1;;
73315;SDS011;61545;53.726;-0.444;2024-03-29T07:55:13;2.9;;;1;;
73315;SDS011;61545;53.726;-0.444;2024-03-29T08:00:13;4.1;;;1.1;;
73315;SDS011;61545;53.726;-0.444;2024-03-29T08:05:13;6.7;;;1.4;;
73315;SDS011;61545;53.726;-0.444;2024-03-29T08:10:13;5.0;;;1.1;;
73315;SDS011;61545;53.726;-0.444;2024-03-29T08:15:13;5.0;;;1.1;;
73315;SDS011;61545;53.726;-0.444;2024-03-29T08:20:13;3.7;;;1.1;;
73315;SDS011;61545;53.726;-0.444;2024-03-29T08:25:13;4.8;;;1.4;;
73315;SDS011;61545;53.726;-0.444;2024-03-29T08:30:13;6.1;;;1.2;;
73315;SDS011;61545;53.726;-0.444;2024-03-29T08:35:13;5.7;;;1.3;;
73315;SDS011;61545;53.726;-0.444;2024-03-29T08:40:13;5.5;;;1.2;;
73315;SDS011;61545;53.726;-0.444;2024-03-29T08:45:13;5.5;;;1.2;;
73315;SDS011;61545;53.726;-0.444;2024-03-29T08:50:13;3.2;;;1.1;;
73315;SDS011;61545;53.726;-0.444;2024-03-29T08:55:13;4.8;;;1.3;;
73315;SDS011;61545;53.726;-0.444;2024-03-29T09:00:13;4.3;;;1.1;;
73315;SDS011;61545;53.726;-0.444;2024-03-29T09:05:13;7.5;;;1.8;;
73315;SDS011;61545;53.726;-0.444;2024-03-29T09:10:13;8.0;;;1.3;;
73315;SDS011;61545;53.726;-0.444;2024-03-29T09:15:13;8.0;;;1.3;;
73315;SDS011;61545;53.726;-0.444;2024-03-29T09:20:13;6.2;;;1.3;;
73315;SDS011;61545;53.726;-0.444;2024-03-29T09:25:13;6.5;;;1.3;;
73315;SDS011;61545;53.726;-0.444;2024-03-29T09:30:13;4.3;;;1.1;;
73315;SDS011;61545;53.726;-0.444;2024-03-29T09:35:13;6.2;;;1.2;;
73315;SDS011;61545;53.726;-0.444;2024-03-29T09:40:13;4.4;;;1.1;;
73315;SDS011;61545;53.726;-0.444;2024-03-29T09:45:13;4.4;;;1.1;;
73315;SDS011;61545;53.726;-0.444;2024-03-29T09:50:13;5.1;;;1.3;;
73315;SDS011;61545;53.726;-0.444;2024-03-29T09:55:13;7.8;;;1.6;;
73315;SDS011;61545;53.726;-0.444;2024-03-29T10:00:13;6.9;;;1.6;;
73315;SDS011;61545;53.726;-0.444;2024-03-29T10:05:13;3.8;;;1.2;;
73315;SDS011;61545;53.726;-0.444;2024-03-29T10:10:13;9.2;;;1.4;;
73315;SDS011;61545;53.726;-0.444;2024-03-29T10:15:13;9.2;;;1.4;;
73315;SDS011;61545;53.726;-0.444;2024-03-29T10:20:15;7.3;;;1.5;;
73315;SDS011;61545;53.726;-0.444;2024-03-29T10:25:13;7.2;;;2.1;;
73315;SDS011;61545;53.726;-0.444;2024-03-29T10:30:13;10.5;;;1.7;;
73315;SDS011;61545;53.726;-0.444;2024-03-29T10:35:13;5.0;;;1.5;;
73315;SDS011;61545;53.726;-0.444;2024-03-29T10:40:13;7.0;;;1.6;;
73315;SDS011;61545;53.726;-0.444;2024-03-29T10:45:13;7.0;;;1.6;;
73315;SDS011;61545;53.726;-0.444;2024-03-29T10:50:13;9.1;;;1.7;;
73315;SDS011;61545;53.726;-0.444;2024-03-29T10:55:13;6.8;;;1.4;;
73315;SDS011;61545;53.726;-0.444;2024-03-29T11:00:15;7.5;;;1.9;;
73315;SDS011;61545;53.726;-0.444;2024-03-29T11:05:14;9.2;;;1.8;;
73315;SDS011;61545;53.726;-0.444;2024-03-29T11:10:15;6.5;;;1.9;;
73315;SDS011;61545;53.726;-0.444;2024-03-29T11:15:15;6.5;;;1.9;;
73315;SDS011;61545;53.726;-0.444;2024-03-29T11:20:13;10.5;;;2.3;;
73315;SDS011;61545;53.726;-0.444;2024-03-29T11:25:13;8.2;;;1.9;;
73315;SDS011;61545;53.726;-0.444;2024-03-29T11:30:16;12.6;;;1.7;;
73315;SDS011;61545;53.726;-0.444;2024-03-29T11:35:14;8.7;;;1.8;;
73315;SDS011;61545;53.726;-0.444;2024-03-29T11:40:13;7.4;;;2.2;;
73315;SDS011;61545;53.726;-0.444;2024-03-29T11:45:13;7.4;;;2.2;;
73315;SDS011;61545;53.726;-0.444;2024-03-29T11:50:13;10.8;;;1.6;;
73315;SDS011;61545;53.726;-0.444;2024-03-29T11:55:13;8.4;;;1.6;;
73315;SDS011;61545;53.726;-0.444;2024-03-29T12:00:13;6.8;;;1.5;;
73315;SDS011;61545;53.726;-0.444;2024-03-29T12:05:13;5.9;;;1.3;;
73315;SDS011;61545;53.726;-0.444;2024-03-29T12:10:13;5.9;;;1.3;;
73315;SDS011;61545;53.726;-0.444;2024-03-29T12:15:13;4.1;;;1;;
73315;SDS011;61545;53.726;-0.444;2024-03-29T12:20:13;7.2;;;1.7;;
73315;SDS011;61545;53.726;-0.444;2024-03-29T12:25:13;5.4;;;1.1;;
73315;SDS011;61545;53.726;-0.444;2024-03-29T12:30:13;4.7;;;1.4;;
73315;SDS011;61545;53.726;-0.444;2024-03-29T12:35:14;3.6;;;1;;
73315;SDS011;61545;53.726;-0.444;2024-03-29T12:40:13;3.6;;;1;;
73315;SDS011;61545;53.726;-0.444;2024-03-29T12:45:13;2.3;;;0.8;;
73315;SDS011;61545;53.726;-0.444;2024-03-29T12:50:13;4.0;;;1;;
73315;SDS011;61545;53.726;-0.444;2024-03-29T12:55:13;4.4;;;1;;
73315;SDS011;61545;53.726;-0.444;2024-03-29T13:00:13;3.5;;;1.1;;
73315;SDS011;61545;53.726;-0.444;2024-03-29T13:05:13;4.2;;;1.2;;
73315;SDS011;61545;53.726;-0.444;2024-03-29T13:10:13;4.2;;;1.2;;
73315;SDS011;61545;53.726;-0.444;2024-03-29T13:15:15;2.8;;;0.8;;
73315;SDS011;61545;53.726;-0.444;2024-03-29T13:20:14;4.8;;;1.7;;
73315;SDS011;61545;53.726;-0.444;2024-03-29T13:25:13;3.0;;;0.9;;
73315;SDS011;61545;53.726;-0.444;2024-03-29T13:30:13;3.0;;;0.9;;
73315;SDS011;61545;53.726;-0.444;2024-03-29T13:35:13;3.2;;;0.9;;
73315;SDS011;61545;53.726;-0.444;2024-03-29T13:40:13;3.2;;;0.9;;
73315;SDS011;61545;53.726;-0.444;2024-03-29T13:45:13;4.2;;;1;;
73315;SDS011;61545;53.726;-0.444;2024-03-29T13:50:13;4.9;;;1.3;;
73315;SDS011;61545;53.726;-0.444;2024-03-29T13:55:13;5.0;;;1.2;;
73315;SDS011;61545;53.726;-0.444;2024-03-29T14:00:14;4.4;;;0.9;;
73315;SDS011;61545;53.726;-0.444;2024-03-29T14:05:13;3.4;;;1;;
73315;SDS011;61545;53.726;-0.444;2024-03-29T14:10:13;3.4;;;1;;
73315;SDS011;61545;53.726;-0.444;2024-03-29T14:15:13;5.4;;;1.8;;
73315;SDS011;61545;53.726;-0.444;2024-03-29T14:20:13;4.2;;;1;;
73315;SDS011;61545;53.726;-0.444;2024-03-29T14:25:13;3.1;;;0.9;;
73315;SDS011;61545;53.726;-0.444;2024-03-29T14:30:13;2.9;;;0.7;;
73315;SDS011;61545;53.726;-0.444;2024-03-29T14:35:13;2.6;;;0.7;;
73315;SDS011;61545;53.726;-0.444;2024-03-29T14:40:13;2.6;;;0.7;;
73315;SDS011;61545;53.726;-0.444;2024-03-29T14:45:13;4.6;;;1.1;;
73315;SDS011;61545;53.726;-0.444;2024-03-29T14:50:13;3.3;;;1;;
73315;SDS011;61545;53.726;-0.444;2024-03-29T14:55:13;2.9;;;0.9;;
73315;SDS011;61545;53.726;-0.444;2024-03-29T15:00:14;2.2;;;0.8;;
73315;SDS011;61545;53.726;-0.444;2024-03-29T15:05:13;2.3;;;0.7;;
73315;SDS011;61545;53.726;-0.444;2024-03-29T15:10:13;2.3;;;0.7;;
73315;SDS011;61545;53.726;-0.444;2024-03-29T15:15:13;4.3;;;0.8;;
73315;SDS011;61545;53.726;-0.444;2024-03-29T15:20:13;4.7;;;0.9;;
73315;SDS011;61545;53.726;-0.444;2024-03-29T15:25:13;3.7;;;0.8;;
73315;SDS011;61545;53.726;-0.444;2024-03-29T15:30:14;4.3;;;0.8;;
73315;SDS011;61545;53.726;-0.444;2024-03-29T15:35:13;3.6;;;0.8;;
73315;SDS011;61545;53.726;-0.444;2024-03-29T15:40:13;3.6;;;0.8;;
73315;SDS011;61545;53.726;-0.444;2024-03-29T15:45:13;1.8;;;0.8;;
73315;SDS011;61545;53.726;-0.444;2024-03-29T15:50:13;4.1;;;0.8;;
73315;SDS011;61545;53.726;-0.444;2024-03-29T15:55:13;2.4;;;0.8;;
73315;SDS011;61545;53.726;-0.444;2024-03-29T16:00:14;3.2;;;1.2;;
73315;SDS011;61545;53.726;-0.444;2024-03-29T16:05:13;4.8;;;1;;
73315;SDS011;61545;53.726;-0.444;2024-03-29T16:10:13;4.8;;;1;;
73315;SDS011;61545;53.726;-0.444;2024-03-29T16:15:13;3.8;;;1;;
73315;SDS011;61545;53.726;-0.444;2024-03-29T16:20:13;2.0;;;0.7;;
73315;SDS011;61545;53.726;-0.444;2024-03-29T16:25:13;1.7;;;0.6;;
73315;SDS011;61545;53.726;-0.444;2024-03-29T16:30:13;5.0;;;1;;
73315;SDS011;61545;53.726;-0.444;2024-03-29T16:35:13;3.3;;;0.9;;
73315;SDS011;61545;53.726;-0.444;2024-03-29T16:40:13;3.3;;;0.9;;
73315;SDS011;61545;53.726;-0.444;2024-03-29T16:45:13;2.6;;;1;;
73315;SDS011;61545;53.726;-0.444;2024-03-29T16:50:13;3.2;;;0.9;;
73315;SDS011;61545;53.726;-0.444;2024-03-29T16:55:13;2.9;;;0.9;;
73315;SDS011;61545;53.726;-0.444;2024-03-29T17:00:14;3.8;;;0.9;;
73315;SDS011;61545;53.726;-0.444;2024-03-29T17:05:13;3.8;;;1;;
73315;SDS011;61545;53.726;-0.444;2024-03-29T17:10:13;3.8;;;1;;
73315;SDS011;61545;53.726;-0.444;2024-03-29T17:15:13;2.1;;;0.7;;
73315;SDS011;61545;53.726;-0.444;2024-03-29T17:20:13;3.2;;;0.8;;
73315;SDS011;61545;53.726;-0.444;2024-03-29T17:25:14;2.6;;;0.9;;
73315;SDS011;61545;53.726;-0.444;2024-03-29T17:30:13;2.5;;;0.7;;
73315;SDS011;61545;53.726;-0.444;2024-03-29T17:35:13;3.9;;;0.7;;
73315;SDS011;61545;53.726;-0.444;2024-03-29T17:40:13;3.9;;;0.7;;
73315;SDS011;61545;53.726;-0.444;2024-03-29T17:45:13;1.7;;;0.5;;
73315;SDS011;61545;53.726;-0.444;2024-03-29T17:50:13;2.6;;;0.7;;
73315;SDS011;61545;53.726;-0.444;2024-03-29T17:55:13;1.5;;;0.4;;
73315;SDS011;61545;53.726;-0.444;2024-03-29T18:00:14;1.4;;;0.6;;
73315;SDS011;61545;53.726;-0.444;2024-03-29T18:05:13;6.3;;;0.8;;
73315;SDS011;61545;53.726;-0.444;2024-03-29T18:10:13;6.3;;;0.8;;
73315;SDS011;61545;53.726;-0.444;2024-03-29T18:15:13;3.2;;;0.9;;
73315;SDS011;61545;53.726;-0.444;2024-03-29T18:20:14;4.7;;;1.1;;
73315;SDS011;61545;53.726;-0.444;2024-03-29T18:25:13;4.1;;;1;;
73315;SDS011;61545;53.726;-0.444;2024-03-29T18:30:13;1.4;;;0.6;;
73315;SDS011;61545;53.726;-0.444;2024-03-29T18:35:13;4.6;;;0.9;;
73315;SDS011;61545;53.726;-0.444;2024-03-29T18:40:14;4.6;;;0.9;;
73315;SDS011;61545;53.726;-0.444;2024-03-29T18:45:13;2.0;;;0.8;;
73315;SDS011;61545;53.726;-0.444;2024-03-29T18:50:13;3.6;;;1.1;;
73315;SDS011;61545;53.726;-0.444;2024-03-29T18:55:13;6.2;;;2;;
73315;SDS011;61545;53.726;-0.444;2024-03-29T19:00:14;4.9;;;1.5;;
73315;SDS011;61545;53.726;-0.444;2024-03-29T19:05:13;4.5;;;1.2;;
73315;SDS011;61545;53.726;-0.444;2024-03-29T19:10:13;4.5;;;1.2;;
73315;SDS011;61545;53.726;-0.444;2024-03-29T19:15:13;7.9;;;1.1;;
73315;SDS011;61545;53.726;-0.444;2024-03-29T19:20:14;5.3;;;0.8;;
73315;SDS011;61545;53.726;-0.444;2024-03-29T19:25:13;3.1;;;0.8;;
73315;SDS011;61545;53.726;-0.444;2024-03-29T19:30:13;4.4;;;1.2;;
73315;SDS011;61545;53.726;-0.444;2024-03-29T19:35:13;3.6;;;0.9;;
73315;SDS011;61545;53.726;-0.444;2024-03-29T19:40:13;3.6;;;0.9;;
73315;SDS011;61545;53.726;-0.444;2024-03-29T19:45:13;3.9;;;1.1;;
73315;SDS011;61545;53.726;-0.444;2024-03-29T19:50:13;3.6;;;0.9;;
73315;SDS011;61545;53.726;-0.444;2024-03-29T19:55:14;2.9;;;0.9;;
73315;SDS011;61545;53.726;-0.444;2024-03-29T20:00:14;2.9;;;0.7;;
73315;SDS011;61545;53.726;-0.444;2024-03-29T20:05:13;4.8;;;1;;
73315;SDS011;61545;53.726;-0.444;2024-03-29T20:10:13;4.8;;;1;;
73315;SDS011;61545;53.726;-0.444;2024-03-29T20:15:13;4.0;;;1;;
73315;SDS011;61545;53.726;-0.444;2024-03-29T20:20:14;4.5;;;0.9;;
73315;SDS011;61545;53.726;-0.444;2024-03-29T20:25:14;3.5;;;0.9;;
73315;SDS011;61545;53.726;-0.444;2024-03-29T20:30:13;2.0;;;0.6;;
73315;SDS011;61545;53.726;-0.444;2024-03-29T20:35:14;2.1;;;0.8;;
73315;SDS011;61545;53.726;-0.444;2024-03-29T20:40:13;2.1;;;0.8;;
73315;SDS011;61545;53.726;-0.444;2024-03-29T20:45:13;2.6;;;0.8;;
73315;SDS011;61545;53.726;-0.444;2024-03-29T20:50:13;3.2;;;0.8;;
73315;SDS011;61545;53.726;-0.444;2024-03-29T20:55:13;1.6;;;0.5;;
73315;SDS011;61545;53.726;-0.444;2024-03-29T21:00:14;2.6;;;0.5;;
73315;SDS011;61545;53.726;-0.444;2024-03-29T21:05:13;3.0;;;0.6;;
73315;SDS011;61545;53.726;-0.444;2024-03-29T21:10:13;3.0;;;0.6;;
73315;SDS011;61545;53.726;-0.444;2024-03-29T21:15:13;2.2;;;0.7;;
73315;SDS011;61545;53.726;-0.444;2024-03-29T21:20:13;2.4;;;0.7;;
73315;SDS011;61545;53.726;-0.444;2024-03-29T21:25:14;2.4;;;0.5;;
73315;SDS011;61545;53.726;-0.444;2024-03-29T21:30:14;2.0;;;0.7;;
73315;SDS011;61545;53.726;-0.444;2024-03-29T21:35:14;1.1;;;0.5;;
73315;SDS011;61545;53.726;-0.444;2024-03-29T21:40:14;1.1;;;0.5;;
73315;SDS011;61545;53.726;-0.444;2024-03-29T21:45:14;3.3;;;0.7;;
73315;SDS011;61545;53.726;-0.444;2024-03-29T21:50:13;2.1;;;0.7;;
73315;SDS011;61545;53.726;-0.444;2024-03-29T21:55:14;1.6;;;0.6;;
73315;SDS011;61545;53.726;-0.444;2024-03-29T22:00:14;2.1;;;0.8;;
73315;SDS011;61545;53.726;-0.444;2024-03-29T22:05:13;2.1;;;0.8;;
73315;SDS011;61545;53.726;-0.444;2024-03-29T22:10:14;2.1;;;0.8;;
73315;SDS011;61545;53.726;-0.444;2024-03-29T22:15:13;2.7;;;0.9;;
73315;SDS011;61545;53.726;-0.444;2024-03-29T22:20:14;2.8;;;0.8;;
73315;SDS011;61545;53.726;-0.444;2024-03-29T22:25:14;4.3;;;1;;
73315;SDS011;61545;53.726;-0.444;2024-03-29T22:30:13;3.0;;;1;;
73315;SDS011;61545;53.726;-0.444;2024-03-29T22:35:14;1.9;;;0.9;;
73315;SDS011;61545;53.726;-0.444;2024-03-29T22:40:13;1.9;;;0.9;;
73315;SDS011;61545;53.726;-0.444;2024-03-29T22:45:14;2.8;;;0.7;;
73315;SDS011;61545;53.726;-0.444;2024-03-29T22:50:14;3.9;;;0.8;;
73315;SDS011;61545;53.726;-0.444;2024-03-29T22:55:14;2.6;;;1;;
73315;SDS011;61545;53.726;-0.444;2024-03-29T23:00:14;2.2;;;0.9;;
73315;SDS011;61545;53.726;-0.444;2024-03-29T23:05:14;2.4;;;0.8;;
73315;SDS011;61545;53.726;-0.444;2024-03-29T23:10:14;2.4;;;0.8;;
73315;SDS011;61545;53.726;-0.444;2024-03-29T23:15:14;6.7;;;1;;
73315;SDS011;61545;53.726;-0.444;2024-03-29T23:20:13;4.0;;;0.8;;
73315;SDS011;61545;53.726;-0.444;2024-03-29T23:25:14;3.3;;;0.9;;
73315;SDS011;61545;53.726;-0.444;2024-03-29T23:30:14;3.1;;;1.1;;
73315;SDS011;61545;53.726;-0.444;2024-03-29T23:35:14;3.3;;;1.2;;
73315;SDS011;61545;53.726;-0.444;2024-03-29T23:40:14;3.3;;;1.2;;
73315;SDS011;61545;53.726;-0.444;2024-03-29T23:45:14;2.7;;;1;;
73315;SDS011;61545;53.726;-0.444;2024-03-29T23:50:14;2.5;;;0.8;;
73315;SDS011;61545;53.726;-0.444;2024-03-29T23:55:14;1.4;;;0.6;;
